sensor_id;sensor_type;location;lat;lon;timestamp;pressure;altitude;pressure_sealevel;temperature;humidity
69187;BME280;56301;56.864;60.554;2023-04-08T00:01:35;99891.81;;;25.03;29.04
69187;BME280;56301;56.864;60.554;2023-04-08T00:04:16;99891.81;;;25.03;29.17
69187;BME280;56301;56.864;60.554;2023-04-08T00:06:39;99891.97;;;25.01;29.19
69187;BME280;56301;56.864;60.554;2023-04-08T00:09:01;99889.25;;;25.01;28.64
69187;BME280;56301;56.864;60.554;2023-04-08T00:11:24;99891.97;;;25.01;28.81
69187;BME280;56301;56.864;60.554;2023-04-08T00:13:46;99886.56;;;25.01;28.95
69187;BME280;56301;56.864;60.554;2023-04-08T00:16:08;99885.56;;;25.02;28.51
69187;BME280;56301;56.864;60.554;2023-04-08T00:18:31;99889.97;;;25.03;28.87
69187;BME280;56301;56.864;60.554;2023-04-08T00:20:54;99882.88;;;25.02;29.12
69187;BME280;56301;56.864;60.554;2023-04-08T00:23:16;99875.72;;;25.01;28.94
69187;BME280;56301;56.864;60.554;2023-04-08T00:25:39;99881.13;;;25.01;28.96
69187;BME280;56301;56.864;60.554;2023-04-08T00:28:01;99891.97;;;25.01;28.30
69187;BME280;56301;56.864;60.554;2023-04-08T00:30:24;99877.44;;;25.02;28.71
69187;BME280;56301;56.864;60.554;2023-04-08T00:32:46;99876.75;;;25.00;28.35
69187;BME280;56301;56.864;60.554;2023-04-08T00:35:09;99879.44;;;25.00;28.98
69187;BME280;56301;56.864;60.554;2023-04-08T00:37:32;99874.03;;;25.00;28.71
69187;BME280;56301;56.864;60.554;2023-04-08T00:39:54;99878.59;;;25.00;28.78
69187;BME280;56301;56.864;60.554;2023-04-08T00:42:17;99876.75;;;25.00;28.60
69187;BME280;56301;56.864;60.554;2023-04-08T00:44:39;99866.94;;;24.99;29.04
69187;BME280;56301;56.864;60.554;2023-04-08T00:47:02;99874.22;;;24.98;29.23
69187;BME280;56301;56.864;60.554;2023-04-08T00:49:25;99873.31;;;24.98;28.47
69187;BME280;56301;56.864;60.554;2023-04-08T00:51:47;99881.44;;;24.98;28.79
69187;BME280;56301;56.864;60.554;2023-04-08T00:54:10;99876.22;;;24.96;28.41
69187;BME280;56301;56.864;60.554;2023-04-08T00:56:32;99872.66;;;24.96;28.63
69187;BME280;56301;56.864;60.554;2023-04-08T00:58:55;99872.78;;;24.94;28.70
69187;BME280;56301;56.864;60.554;2023-04-08T01:01:21;99862.13;;;24.93;29.02
69187;BME280;56301;56.864;60.554;2023-04-08T01:06:39;99861.28;;;24.92;28.39
69187;BME280;56301;56.864;60.554;2023-04-08T01:09:03;99860.44;;;24.92;27.88
69187;BME280;56301;56.864;60.554;2023-04-08T01:11:26;99870.25;;;24.93;27.62
69187;BME280;56301;56.864;60.554;2023-04-08T01:13:49;99857.56;;;24.93;28.08
69187;BME280;56301;56.864;60.554;2023-04-08T01:16:14;99860.13;;;24.95;28.22
69187;BME280;56301;56.864;60.554;2023-04-08T01:18:37;99865.06;;;25.00;28.83
69187;BME280;56301;56.864;60.554;2023-04-08T01:21:01;99866.63;;;25.02;28.30
69187;BME280;56301;56.864;60.554;2023-04-08T01:23:29;99859.88;;;25.06;28.68
69187;BME280;56301;56.864;60.554;2023-04-08T01:25:55;99863.25;;;25.08;28.77
69187;BME280;56301;56.864;60.554;2023-04-08T01:28:18;99855.13;;;25.08;29.31
69187;BME280;56301;56.864;60.554;2023-04-08T01:30:40;99854.13;;;25.09;29.16
69187;BME280;56301;56.864;60.554;2023-04-08T01:33:03;99852.41;;;25.08;29.10
69187;BME280;56301;56.864;60.554;2023-04-08T01:35:26;99855.69;;;25.12;29.61
69187;BME280;56301;56.864;60.554;2023-04-08T01:37:49;99845.69;;;25.12;29.41
69187;BME280;56301;56.864;60.554;2023-04-08T01:40:12;99850.13;;;25.13;27.54
69187;BME280;56301;56.864;60.554;2023-04-08T01:42:35;99854.34;;;25.16;28.80
69187;BME280;56301;56.864;60.554;2023-04-08T01:44:58;99855.91;;;25.18;28.54
69187;BME280;56301;56.864;60.554;2023-04-08T01:47:20;99848.63;;;25.19;28.15
69187;BME280;56301;56.864;60.554;2023-04-08T01:49:44;99848.78;;;25.17;27.74
69187;BME280;56301;56.864;60.554;2023-04-08T01:52:06;99849.47;;;25.19;26.96
69187;BME280;56301;56.864;60.554;2023-04-08T01:54:30;99854.88;;;25.19;28.00
69187;BME280;56301;56.864;60.554;2023-04-08T01:56:53;99854.22;;;25.17;27.64
69187;BME280;56301;56.864;60.554;2023-04-08T01:59:15;99851.66;;;25.16;27.16
69187;BME280;56301;56.864;60.554;2023-04-08T02:01:40;99849.81;;;25.16;27.53
69187;BME280;56301;56.864;60.554;2023-04-08T02:04:04;99850.81;;;25.15;27.34
69187;BME280;56301;56.864;60.554;2023-04-08T02:06:27;99854.53;;;25.14;27.38
69187;BME280;56301;56.864;60.554;2023-04-08T02:08:50;99848.28;;;25.14;27.67
69187;BME280;56301;56.864;60.554;2023-04-08T02:11:12;99841.16;;;25.13;27.54
69187;BME280;56301;56.864;60.554;2023-04-08T02:13:35;99850.28;;;25.12;26.54
69187;BME280;56301;56.864;60.554;2023-04-08T02:16:18;99850.28;;;25.12;26.70
69187;BME280;56301;56.864;60.554;2023-04-08T02:18:43;99844.00;;;25.11;26.70
69187;BME280;56301;56.864;60.554;2023-04-08T02:21:12;99847.72;;;25.10;26.75
69187;BME280;56301;56.864;60.554;2023-04-08T02:23:36;99848.72;;;25.09;26.42
69187;BME280;56301;56.864;60.554;2023-04-08T02:25:59;99847.84;;;25.09;26.37
69187;BME280;56301;56.864;60.554;2023-04-08T02:28:23;99844.28;;;25.08;26.56
69187;BME280;56301;56.864;60.554;2023-04-08T02:30:48;99839.72;;;25.09;26.88
69187;BME280;56301;56.864;60.554;2023-04-08T02:33:11;99841.59;;;25.08;28.37
69187;BME280;56301;56.864;60.554;2023-04-08T02:35:35;99846.16;;;25.08;28.40
69187;BME280;56301;56.864;60.554;2023-04-08T02:37:58;99847.19;;;25.07;27.70
69187;BME280;56301;56.864;60.554;2023-04-08T02:40:21;99841.75;;;25.07;27.56
69187;BME280;56301;56.864;60.554;2023-04-08T02:42:44;99843.75;;;25.05;27.67
69187;BME280;56301;56.864;60.554;2023-04-08T02:45:07;99845.63;;;25.04;27.38
69187;BME280;56301;56.864;60.554;2023-04-08T02:47:29;99850.91;;;25.06;27.48
69187;BME280;56301;56.864;60.554;2023-04-08T02:49:52;99849.19;;;25.05;27.14
69187;BME280;56301;56.864;60.554;2023-04-08T02:52:14;99849.19;;;25.05;28.00
69187;BME280;56301;56.864;60.554;2023-04-08T02:54:37;99845.31;;;25.07;27.74
69187;BME280;56301;56.864;60.554;2023-04-08T02:56:59;99851.22;;;25.03;26.35
69187;BME280;56301;56.864;60.554;2023-04-08T02:59:22;99851.03;;;25.04;27.47
69187;BME280;56301;56.864;60.554;2023-04-08T03:01:44;99842.91;;;25.04;25.97
69187;BME280;56301;56.864;60.554;2023-04-08T03:04:07;99846.66;;;25.03;25.65
69187;BME280;56301;56.864;60.554;2023-04-08T03:06:29;99843.22;;;25.01;26.65
69187;BME280;56301;56.864;60.554;2023-04-08T03:08:51;99842.25;;;25.02;26.21
69187;BME280;56301;56.864;60.554;2023-04-08T03:11:14;99843.09;;;25.03;27.80
69187;BME280;56301;56.864;60.554;2023-04-08T03:13:36;99841.38;;;25.02;26.29
69187;BME280;56301;56.864;60.554;2023-04-08T03:15:59;99841.22;;;25.03;27.41
69187;BME280;56301;56.864;60.554;2023-04-08T03:18:21;99837.50;;;25.04;27.41
69187;BME280;56301;56.864;60.554;2023-04-08T03:20:43;99835.81;;;25.03;26.57
69187;BME280;56301;56.864;60.554;2023-04-08T03:23:06;99833.09;;;25.03;27.95
69187;BME280;56301;56.864;60.554;2023-04-08T03:25:28;99841.22;;;25.03;28.84
69187;BME280;56301;56.864;60.554;2023-04-08T03:27:51;99834.78;;;25.04;28.07
69187;BME280;56301;56.864;60.554;2023-04-08T03:30:13;99833.09;;;25.03;27.02
69187;BME280;56301;56.864;60.554;2023-04-08T03:32:36;99834.13;;;25.02;27.42
69187;BME280;56301;56.864;60.554;2023-04-08T03:34:58;99825.81;;;25.04;28.43
69187;BME280;56301;56.864;60.554;2023-04-08T03:37:21;99825.81;;;25.04;28.80
69187;BME280;56301;56.864;60.554;2023-04-08T03:39:43;99826.66;;;25.04;27.08
69187;BME280;56301;56.864;60.554;2023-04-08T03:42:06;99818.53;;;25.04;26.83
69187;BME280;56301;56.864;60.554;2023-04-08T03:44:28;99828.34;;;25.05;27.53
69187;BME280;56301;56.864;60.554;2023-04-08T03:46:51;99819.56;;;25.03;25.99
69187;BME280;56301;56.864;60.554;2023-04-08T03:49:13;99821.25;;;25.04;26.75
69187;BME280;56301;56.864;60.554;2023-04-08T03:51:35;99818.53;;;25.04;26.53
69187;BME280;56301;56.864;60.554;2023-04-08T03:53:58;99815.00;;;25.04;27.60
69187;BME280;56301;56.864;60.554;2023-04-08T03:56:40;99769.66;;;24.80;26.99
69187;BME280;56301;56.864;60.554;2023-04-08T03:59:02;99817.69;;;25.04;25.85
69187;BME280;56301;56.864;60.554;2023-04-08T04:01:25;99811.59;;;25.02;26.84
69187;BME280;56301;56.864;60.554;2023-04-08T04:03:47;99808.03;;;25.01;25.97
69187;BME280;56301;56.864;60.554;2023-04-08T04:06:10;99808.88;;;25.02;26.75
69187;BME280;56301;56.864;60.554;2023-04-08T04:08:32;99806.16;;;25.02;25.73
69187;BME280;56301;56.864;60.554;2023-04-08T04:10:54;99803.47;;;25.02;26.00
69187;BME280;56301;56.864;60.554;2023-04-08T04:13:17;99799.91;;;25.01;26.27
69187;BME280;56301;56.864;60.554;2023-04-08T04:15:39;99792.81;;;25.00;26.78
69187;BME280;56301;56.864;60.554;2023-04-08T04:18:02;99792.81;;;25.00;26.14
69187;BME280;56301;56.864;60.554;2023-04-08T04:20:24;99789.25;;;25.00;26.29
69187;BME280;56301;56.864;60.554;2023-04-08T04:22:47;99779.25;;;25.00;25.63
69187;BME280;56301;56.864;60.554;2023-04-08T04:25:09;99783.66;;;25.01;25.95
69187;BME280;56301;56.864;60.554;2023-04-08T04:27:32;99772.81;;;25.01;26.14
69187;BME280;56301;56.864;60.554;2023-04-08T04:29:54;99769.13;;;25.02;26.15
69187;BME280;56301;56.864;60.554;2023-04-08T04:32:17;99761.69;;;25.04;25.75
69187;BME280;56301;56.864;60.554;2023-04-08T04:34:39;99764.25;;;25.06;26.43
69187;BME280;56301;56.864;60.554;2023-04-08T04:37:02;99763.22;;;25.07;26.13
69187;BME280;56301;56.864;60.554;2023-04-08T04:39:24;99762.91;;;25.10;27.25
69187;BME280;56301;56.864;60.554;2023-04-08T04:41:46;99757.34;;;25.11;27.24
69187;BME280;56301;56.864;60.554;2023-04-08T04:44:09;99767.03;;;25.14;27.13
69187;BME280;56301;56.864;60.554;2023-04-08T04:46:31;99758.41;;;25.18;26.89
69187;BME280;56301;56.864;60.554;2023-04-08T04:48:54;99760.09;;;25.19;27.44
69187;BME280;56301;56.864;60.554;2023-04-08T04:51:16;99758.06;;;25.21;26.75
69187;BME280;56301;56.864;60.554;2023-04-08T04:53:39;99751.50;;;25.24;26.28
69187;BME280;56301;56.864;60.554;2023-04-08T04:56:01;99752.34;;;25.25;26.30
69187;BME280;56301;56.864;60.554;2023-04-08T04:58:23;99752.88;;;25.28;27.01
69187;BME280;56301;56.864;60.554;2023-04-08T05:00:46;99751.84;;;25.29;27.03
69187;BME280;56301;56.864;60.554;2023-04-08T05:03:08;99758.81;;;25.32;26.81
69187;BME280;56301;56.864;60.554;2023-04-08T05:05:31;99736.81;;;25.35;27.26
69187;BME280;56301;56.864;60.554;2023-04-08T05:07:53;99746.44;;;25.37;27.49
69187;BME280;56301;56.864;60.554;2023-04-08T05:10:16;99744.44;;;25.39;26.85
69187;BME280;56301;56.864;60.554;2023-04-08T05:12:38;99741.53;;;25.41;26.81
69187;BME280;56301;56.864;60.554;2023-04-08T05:15:01;99737.66;;;25.43;27.11
69187;BME280;56301;56.864;60.554;2023-04-08T05:17:23;99721.22;;;25.37;26.41
69187;BME280;56301;56.864;60.554;2023-04-08T05:19:46;99738.19;;;25.47;26.92
69187;BME280;56301;56.864;60.554;2023-04-08T05:22:08;99728.19;;;25.48;27.01
69187;BME280;56301;56.864;60.554;2023-04-08T05:24:31;99728.88;;;25.50;26.77
69187;BME280;56301;56.864;60.554;2023-04-08T05:26:53;99742.25;;;25.51;27.59
69187;BME280;56301;56.864;60.554;2023-04-08T05:29:15;99736.66;;;25.53;27.85
69187;BME280;56301;56.864;60.554;2023-04-08T05:31:38;99729.06;;;25.56;27.25
69187;BME280;56301;56.864;60.554;2023-04-08T05:34:00;99730.44;;;25.60;27.13
69187;BME280;56301;56.864;60.554;2023-04-08T05:36:23;99721.09;;;25.63;26.83
69187;BME280;56301;56.864;60.554;2023-04-08T05:38:45;99710.97;;;25.65;26.97
69187;BME280;56301;56.864;60.554;2023-04-08T05:41:08;99713.50;;;25.66;26.94
69187;BME280;56301;56.864;60.554;2023-04-08T05:43:33;99716.56;;;25.72;26.87
69187;BME280;56301;56.864;60.554;2023-04-08T05:45:56;99710.13;;;25.73;27.17
69187;BME280;56301;56.864;60.554;2023-04-08T05:48:18;99703.34;;;25.77;27.13
69187;BME280;56301;56.864;60.554;2023-04-08T05:50:41;99703.75;;;25.82;27.93
69187;BME280;56301;56.864;60.554;2023-04-08T05:53:03;99705.09;;;25.86;27.13
69187;BME280;56301;56.864;60.554;2023-04-08T05:55:25;99701.38;;;25.87;27.66
69187;BME280;56301;56.864;60.554;2023-04-08T05:57:48;99695.09;;;26.11;27.61
69187;BME280;56301;56.864;60.554;2023-04-08T06:00:10;99695.41;;;26.32;26.94
69187;BME280;56301;56.864;60.554;2023-04-08T06:02:33;99692.16;;;26.45;26.46
69187;BME280;56301;56.864;60.554;2023-04-08T06:04:56;99679.94;;;26.57;26.30
69187;BME280;56301;56.864;60.554;2023-04-08T06:07:18;99675.13;;;26.76;26.73
69187;BME280;56301;56.864;60.554;2023-04-08T06:09:41;99684.63;;;26.88;27.10
69187;BME280;56301;56.864;60.554;2023-04-08T06:12:03;99674.69;;;27.03;26.09
69187;BME280;56301;56.864;60.554;2023-04-08T06:14:26;99666.00;;;27.08;26.04
69187;BME280;56301;56.864;60.554;2023-04-08T06:16:48;99671.28;;;27.18;26.71
69187;BME280;56301;56.864;60.554;2023-04-08T06:19:11;99667.66;;;27.25;25.79
69187;BME280;56301;56.864;60.554;2023-04-08T06:21:34;99670.56;;;27.24;26.80
69187;BME280;56301;56.864;60.554;2023-04-08T06:23:56;99664.50;;;27.14;26.59
69187;BME280;56301;56.864;60.554;2023-04-08T06:26:19;99657.34;;;27.21;26.23
69187;BME280;56301;56.864;60.554;2023-04-08T06:28:41;99653.78;;;27.20;26.78
69187;BME280;56301;56.864;60.554;2023-04-08T06:31:04;99653.59;;;27.22;26.56
69187;BME280;56301;56.864;60.554;2023-04-08T06:33:26;99645.09;;;27.25;26.86
69187;BME280;56301;56.864;60.554;2023-04-08T06:35:48;99648.09;;;27.30;26.81
69187;BME280;56301;56.864;60.554;2023-04-08T06:38:11;99655.88;;;27.33;25.85
69187;BME280;56301;56.864;60.554;2023-04-08T06:40:34;99648.59;;;27.33;27.95
69187;BME280;56301;56.864;60.554;2023-04-08T06:42:56;99649.06;;;27.37;25.79
69187;BME280;56301;56.864;60.554;2023-04-08T06:45:31;99650.41;;;27.41;26.06
69187;BME280;56301;56.864;60.554;2023-04-08T06:47:53;99649.03;;;27.45;27.04
69187;BME280;56301;56.864;60.554;2023-04-08T06:50:16;99640.50;;;27.48;26.70
69187;BME280;56301;56.864;60.554;2023-04-08T06:52:38;99643.53;;;27.53;27.60
69187;BME280;56301;56.864;60.554;2023-04-08T06:55:01;99645.50;;;27.59;26.65
69187;BME280;56301;56.864;60.554;2023-04-08T06:57:23;99630.72;;;27.62;26.71
69187;BME280;56301;56.864;60.554;2023-04-08T06:59:46;99624.91;;;27.65;26.66
69187;BME280;56301;56.864;60.554;2023-04-08T07:02:08;99627.84;;;27.64;25.88
69187;BME280;56301;56.864;60.554;2023-04-08T07:04:30;99628.19;;;27.60;26.71
69187;BME280;56301;56.864;60.554;2023-04-08T07:06:53;99620.31;;;27.66;25.85
69187;BME280;56301;56.864;60.554;2023-04-08T07:09:15;99626.25;;;27.69;25.24
69187;BME280;56301;56.864;60.554;2023-04-08T07:11:38;99619.59;;;27.72;26.39
69187;BME280;56301;56.864;60.554;2023-04-08T07:14:00;99615.53;;;27.76;25.71
69187;BME280;56301;56.864;60.554;2023-04-08T07:16:23;99610.41;;;27.73;25.51
69187;BME280;56301;56.864;60.554;2023-04-08T07:18:45;99612.97;;;27.74;26.26
69187;BME280;56301;56.864;60.554;2023-04-08T07:21:08;99608.88;;;27.78;25.54
69187;BME280;56301;56.864;60.554;2023-04-08T07:23:30;99609.63;;;27.87;26.29
69187;BME280;56301;56.864;60.554;2023-04-08T07:25:53;99606.56;;;27.90;25.80
69187;BME280;56301;56.864;60.554;2023-04-08T07:28:16;99595.38;;;27.85;26.48
69187;BME280;56301;56.864;60.554;2023-04-08T07:30:39;99599.97;;;27.84;26.35
69187;BME280;56301;56.864;60.554;2023-04-08T07:33:01;99584.25;;;27.72;26.80
69187;BME280;56301;56.864;60.554;2023-04-08T07:35:23;99592.47;;;27.18;26.93
69187;BME280;56301;56.864;60.554;2023-04-08T07:37:46;99594.63;;;26.60;28.26
69187;BME280;56301;56.864;60.554;2023-04-08T07:40:08;99588.09;;;26.22;28.80
69187;BME280;56301;56.864;60.554;2023-04-08T07:42:31;99578.00;;;25.91;29.05
69187;BME280;56301;56.864;60.554;2023-04-08T07:44:53;99572.88;;;25.63;29.76
69187;BME280;56301;56.864;60.554;2023-04-08T07:47:16;99575.63;;;25.47;30.44
69187;BME280;56301;56.864;60.554;2023-04-08T07:49:38;99576.78;;;25.53;29.45
69187;BME280;56301;56.864;60.554;2023-04-08T07:52:01;99556.47;;;25.32;29.59
69187;BME280;56301;56.864;60.554;2023-04-08T07:54:23;99557.66;;;25.21;30.60
69187;BME280;56301;56.864;60.554;2023-04-08T07:56:45;99568.31;;;25.48;30.49
69187;BME280;56301;56.864;60.554;2023-04-08T07:59:08;99558.00;;;25.43;31.17
69187;BME280;56301;56.864;60.554;2023-04-08T08:01:30;99559.19;;;25.40;31.04
69187;BME280;56301;56.864;60.554;2023-04-08T08:03:53;99554.28;;;25.28;31.86
69187;BME280;56301;56.864;60.554;2023-04-08T08:06:15;99538.00;;;25.11;32.24
69187;BME280;56301;56.864;60.554;2023-04-08T08:08:38;99549.97;;;25.01;32.63
69187;BME280;56301;56.864;60.554;2023-04-08T08:11:00;99540.66;;;24.95;32.44
69187;BME280;56301;56.864;60.554;2023-04-08T08:13:23;99535.91;;;24.89;32.59
69187;BME280;56301;56.864;60.554;2023-04-08T08:15:46;99536.88;;;24.80;30.67
69187;BME280;56301;56.864;60.554;2023-04-08T08:18:08;99526.03;;;24.63;28.40
69187;BME280;56301;56.864;60.554;2023-04-08T08:20:30;99518.88;;;24.46;27.32
69187;BME280;56301;56.864;60.554;2023-04-08T08:22:53;99513.78;;;24.43;25.99
69187;BME280;56301;56.864;60.554;2023-04-08T08:25:15;99514.63;;;24.43;25.98
69187;BME280;56301;56.864;60.554;2023-04-08T08:27:38;99508.13;;;24.62;25.27
69187;BME280;56301;56.864;60.554;2023-04-08T08:30:01;99510.84;;;24.70;24.37
69187;BME280;56301;56.864;60.554;2023-04-08T08:32:24;99504.41;;;24.80;25.81
69187;BME280;56301;56.864;60.554;2023-04-08T08:34:46;99496.00;;;25.07;25.50
69187;BME280;56301;56.864;60.554;2023-04-08T08:37:09;99494.31;;;25.55;26.78
69187;BME280;56301;56.864;60.554;2023-04-08T08:39:31;99498.34;;;25.84;23.63
69187;BME280;56301;56.864;60.554;2023-04-08T08:41:54;99499.44;;;25.42;21.59
69187;BME280;56301;56.864;60.554;2023-04-08T08:44:16;99498.53;;;25.01;23.29
69187;BME280;56301;56.864;60.554;2023-04-08T08:46:45;99500.34;;;24.67;24.03
69187;BME280;56301;56.864;60.554;2023-04-08T08:49:08;99500.66;;;24.64;23.66
69187;BME280;56301;56.864;60.554;2023-04-08T08:51:30;99499.63;;;24.57;25.22
69187;BME280;56301;56.864;60.554;2023-04-08T08:53:53;99488.66;;;24.67;24.86
69187;BME280;56301;56.864;60.554;2023-04-08T08:56:15;99491.06;;;24.36;24.80
69187;BME280;56301;56.864;60.554;2023-04-08T08:58:38;99482.59;;;24.31;25.73
69187;BME280;56301;56.864;60.554;2023-04-08T09:01:00;99469.59;;;24.26;25.59
69187;BME280;56301;56.864;60.554;2023-04-08T09:03:24;99486.66;;;24.26;26.87
69187;BME280;56301;56.864;60.554;2023-04-08T09:05:54;99475.16;;;24.33;27.92
69187;BME280;56301;56.864;60.554;2023-04-08T09:08:23;99477.94;;;24.41;28.64
69187;BME280;56301;56.864;60.554;2023-04-08T09:10:46;99469.84;;;24.49;28.93
69187;BME280;56301;56.864;60.554;2023-04-08T09:13:08;99468.50;;;24.53;29.31
69187;BME280;56301;56.864;60.554;2023-04-08T09:15:31;99466.13;;;24.50;29.81
69187;BME280;56301;56.864;60.554;2023-04-08T09:17:53;99464.63;;;24.56;29.98
69187;BME280;56301;56.864;60.554;2023-04-08T09:20:16;99470.88;;;24.48;30.17
69187;BME280;56301;56.864;60.554;2023-04-08T09:22:58;99463.44;;;24.58;30.62
69187;BME280;56301;56.864;60.554;2023-04-08T09:25:24;99458.00;;;24.50;31.04
69187;BME280;56301;56.864;60.554;2023-04-08T09:27:46;99463.59;;;24.48;31.48
69187;BME280;56301;56.864;60.554;2023-04-08T09:30:13;99468.50;;;24.45;31.75
69187;BME280;56301;56.864;60.554;2023-04-08T09:32:48;99456.31;;;24.41;31.30
69187;BME280;56301;56.864;60.554;2023-04-08T09:35:10;99447.50;;;24.47;31.37
69187;BME280;56301;56.864;60.554;2023-04-08T09:37:33;99448.22;;;24.49;31.28
69187;BME280;56301;56.864;60.554;2023-04-08T09:39:56;99446.19;;;24.51;31.44
69187;BME280;56301;56.864;60.554;2023-04-08T09:42:18;99455.47;;;24.48;32.27
69187;BME280;56301;56.864;60.554;2023-04-08T09:44:43;99444.28;;;24.43;32.29
69187;BME280;56301;56.864;60.554;2023-04-08T09:47:09;99449.91;;;24.50;32.51
69187;BME280;56301;56.864;60.554;2023-04-08T09:49:42;99439.91;;;24.50;32.78
69187;BME280;56301;56.864;60.554;2023-04-08T09:52:10;99444.81;;;24.47;33.00
69187;BME280;56301;56.864;60.554;2023-04-08T09:57:01;99443.00;;;24.56;33.44
69187;BME280;56301;56.864;60.554;2023-04-08T09:59:24;99446.03;;;24.61;35.45
69187;BME280;56301;56.864;60.554;2023-04-08T10:01:49;99446.72;;;24.63;36.87
69187;BME280;56301;56.864;60.554;2023-04-08T10:04:15;99440.44;;;24.54;37.44
69187;BME280;56301;56.864;60.554;2023-04-08T10:06:38;99439.34;;;24.39;37.42
69187;BME280;56301;56.864;60.554;2023-04-08T10:09:02;99426.47;;;24.33;37.17
69187;BME280;56301;56.864;60.554;2023-04-08T10:11:24;99434.25;;;24.27;37.55
69187;BME280;56301;56.864;60.554;2023-04-08T10:13:47;99420.03;;;24.25;36.88
69187;BME280;56301;56.864;60.554;2023-04-08T10:18:38;99420.88;;;24.18;37.24
69187;BME280;56301;56.864;60.554;2023-04-08T10:21:00;99429.16;;;24.16;37.11
69187;BME280;56301;56.864;60.554;2023-04-08T10:23:51;99424.25;;;24.12;37.06
69187;BME280;56301;56.864;60.554;2023-04-08T10:26:05;99418.34;;;24.24;37.16
69187;BME280;56301;56.864;60.554;2023-04-08T10:28:47;99418.16;;;24.18;37.29
69187;BME280;56301;56.864;60.554;2023-04-08T10:31:10;99428.84;;;23.85;37.85
69187;BME280;56301;56.864;60.554;2023-04-08T10:33:43;99424.19;;;24.54;38.58
69187;BME280;56301;56.864;60.554;2023-04-08T10:36:09;99407.31;;;24.93;38.74
69187;BME280;56301;56.864;60.554;2023-04-08T10:38:32;99399.72;;;25.21;39.40
69187;BME280;56301;56.864;60.554;2023-04-08T10:40:55;99409.00;;;25.43;39.25
69187;BME280;56301;56.864;60.554;2023-04-08T10:43:17;99410.16;;;25.57;38.82
69187;BME280;56301;56.864;60.554;2023-04-08T10:45:40;99412.31;;;25.69;38.73
69187;BME280;56301;56.864;60.554;2023-04-08T10:48:36;99423.09;;;25.78;38.79
69187;BME280;56301;56.864;60.554;2023-04-08T10:50:59;99412.94;;;25.88;37.91
69187;BME280;56301;56.864;60.554;2023-04-08T10:55:47;99400.28;;;25.80;37.59
69187;BME280;56301;56.864;60.554;2023-04-08T10:58:10;99394.00;;;25.80;37.71
69187;BME280;56301;56.864;60.554;2023-04-08T11:00:33;99410.09;;;25.81;37.45
69187;BME280;56301;56.864;60.554;2023-04-08T11:02:59;99406.53;;;25.81;38.03
69187;BME280;56301;56.864;60.554;2023-04-08T11:05:22;99402.44;;;25.85;36.84
69187;BME280;56301;56.864;60.554;2023-04-08T11:07:44;99403.44;;;25.92;37.22
69187;BME280;56301;56.864;60.554;2023-04-08T11:10:07;99415.09;;;26.01;37.37
69187;BME280;56301;56.864;60.554;2023-04-08T11:12:30;99411.84;;;26.05;37.86
69187;BME280;56301;56.864;60.554;2023-04-08T11:14:52;99408.81;;;26.08;36.82
69187;BME280;56301;56.864;60.554;2023-04-08T11:17:15;99404.91;;;26.11;37.47
69187;BME280;56301;56.864;60.554;2023-04-08T11:19:37;99398.09;;;26.15;37.83
69187;BME280;56301;56.864;60.554;2023-04-08T11:22:00;99407.06;;;26.15;37.79
69187;BME280;56301;56.864;60.554;2023-04-08T11:24:23;99403.13;;;26.18;39.21
69187;BME280;56301;56.864;60.554;2023-04-08T11:26:46;99402.13;;;26.19;39.15
69187;BME280;56301;56.864;60.554;2023-04-08T11:29:09;99398.19;;;26.22;38.42
69187;BME280;56301;56.864;60.554;2023-04-08T11:31:32;99390.06;;;26.22;39.25
69187;BME280;56301;56.864;60.554;2023-04-08T11:33:55;99404.31;;;26.24;38.72
69187;BME280;56301;56.864;60.554;2023-04-08T11:36:17;99386.34;;;26.23;39.78
69187;BME280;56301;56.864;60.554;2023-04-08T11:38:40;99389.06;;;26.23;40.38
69187;BME280;56301;56.864;60.554;2023-04-08T11:41:02;99387.00;;;26.25;39.70
69187;BME280;56301;56.864;60.554;2023-04-08T11:43:25;99388.38;;;26.21;38.29
69187;BME280;56301;56.864;60.554;2023-04-08T11:45:47;99379.59;;;26.19;40.01
69187;BME280;56301;56.864;60.554;2023-04-08T11:48:10;99376.34;;;26.23;39.21
69187;BME280;56301;56.864;60.554;2023-04-08T11:50:33;99383.63;;;26.23;39.29
69187;BME280;56301;56.864;60.554;2023-04-08T11:52:55;99381.94;;;26.22;39.16
69187;BME280;56301;56.864;60.554;2023-04-08T11:55:24;99376.34;;;26.23;38.37
69187;BME280;56301;56.864;60.554;2023-04-08T11:57:47;99381.94;;;26.22;38.57
69187;BME280;56301;56.864;60.554;2023-04-08T12:00:10;99368.34;;;26.22;39.17
69187;BME280;56301;56.864;60.554;2023-04-08T12:02:35;99366.03;;;26.19;39.53
69187;BME280;56301;56.864;60.554;2023-04-08T12:04:58;99369.25;;;26.14;38.60
69187;BME280;56301;56.864;60.554;2023-04-08T12:07:20;99373.53;;;26.08;37.08
69187;BME280;56301;56.864;60.554;2023-04-08T12:09:43;99381.00;;;26.06;38.85
69187;BME280;56301;56.864;60.554;2023-04-08T12:12:05;99373.22;;;26.03;37.47
69187;BME280;56301;56.864;60.554;2023-04-08T12:14:27;99371.53;;;26.02;37.49
69187;BME280;56301;56.864;60.554;2023-04-08T12:16:50;99363.25;;;25.96;35.93
69187;BME280;56301;56.864;60.554;2023-04-08T12:19:12;99359.81;;;25.79;35.86
69187;BME280;56301;56.864;60.554;2023-04-08T12:21:35;99371.31;;;25.73;38.58
69187;BME280;56301;56.864;60.554;2023-04-08T12:23:57;99363.88;;;25.66;34.83
69187;BME280;56301;56.864;60.554;2023-04-08T12:26:20;99364.69;;;25.67;33.18
69187;BME280;56301;56.864;60.554;2023-04-08T12:28:42;99361.16;;;25.66;32.71
69187;BME280;56301;56.864;60.554;2023-04-08T12:31:05;99356.94;;;25.64;32.31
69187;BME280;56301;56.864;60.554;2023-04-08T12:33:27;99351.69;;;25.62;31.85
69187;BME280;56301;56.864;60.554;2023-04-08T12:35:50;99341.88;;;25.61;31.63
69187;BME280;56301;56.864;60.554;2023-04-08T12:38:12;99351.03;;;25.60;31.32
69187;BME280;56301;56.864;60.554;2023-04-08T12:40:34;99347.63;;;25.58;31.28